Shannondale, Missouri
Current Conditions -  °F | °C
As of 10:58 PM on Wednesday 22 Oct 2014 (Local Time) from KTBN Reporting Station
Clear Clear  
Wind Chill: 45°   Ceiling: Unl
Heat Index: 47°   Visibility: 10mi
Dew Point: 44°   Wind: 5mph
Humidity: 89%   Direction: 150°SSE
Pressure: 30.2"   Gusts: NA
Location:  37.5023°N, 91.4546°W
Report Text: KTBN 230358Z AUTO 15004KT 10SM CLR 08/07 A3020 RMK AO2 SLP230 T00840067
Loading
Personal Weather Stations






























Interactive Weather Map
Tropical Storm Tracking
New forecast layout! Learn more

10-Day Weather Forecast

Advertisements
Track Severe Weather on mobile